createdAt,value
2023-02-17T02:04:43.841Z,24.67
2023-02-17T02:07:34.979Z,24.77
2023-02-17T02:10:05.606Z,23.67
2023-02-17T02:12:58.544Z,22.38
2023-02-17T02:15:31.978Z,23.88
2023-02-17T02:18:14.811Z,23.67
2023-02-17T02:20:42.267Z,23.75
2023-02-17T02:23:30.649Z,25.52
2023-02-17T02:26:01.131Z,25.63
2023-02-17T02:28:47.940Z,26.23
2023-02-17T02:31:21.761Z,23.92
2023-02-17T02:34:04.463Z,25.52
2023-02-17T02:36:33.495Z,22.70
2023-02-17T02:39:12.147Z,23.17
2023-02-17T02:41:55.976Z,22.58
2023-02-17T02:44:23.860Z,24.30
2023-02-17T02:46:59.164Z,23.38
2023-02-17T02:49:28.696Z,25.27
2023-02-17T02:52:20.116Z,22.95
2023-02-17T02:54:50.764Z,23.98
2023-02-17T02:57:32.882Z,22.85
2023-02-17T03:00:10.443Z,24.27
2023-02-17T03:02:37.951Z,23.85
2023-02-17T03:05:11.655Z,23.75
2023-02-17T03:07:42.243Z,24.15
2023-02-17T03:10:10.100Z,24.85
2023-02-17T03:12:39.168Z,23.55
2023-02-17T03:15:16.352Z,26.63
2023-02-17T03:17:43.839Z,25.92
2023-02-17T03:20:13.104Z,25.20
2023-02-17T03:22:42.224Z,24.88
2023-02-17T03:25:09.743Z,26.30
2023-02-17T03:27:37.294Z,25.92
2023-02-17T03:30:05.321Z,26.35
2023-02-17T03:32:32.941Z,25.73
2023-02-17T03:35:00.569Z,24.17
2023-02-17T03:37:28.026Z,25.38
2023-02-17T03:39:55.470Z,24.08
2023-02-17T03:42:23.017Z,26.05
2023-02-17T03:44:50.437Z,23.33
2023-02-17T03:47:17.878Z,25.60
2023-02-17T03:49:45.432Z,24.17
2023-02-17T03:52:12.941Z,24.08
2023-02-17T03:54:40.407Z,24.50
2023-02-17T03:57:10.286Z,22.13
2023-02-17T03:59:37.850Z,22.58
2023-02-17T04:02:05.306Z,22.90
2023-02-17T04:04:32.813Z,22.27
2023-02-17T04:07:00.244Z,20.45
2023-02-17T04:09:27.804Z,21.60
2023-02-17T04:11:55.248Z,21.40
2023-02-17T04:14:22.743Z,20.88
2023-02-17T04:16:50.172Z,18.92
2023-02-17T04:19:18.795Z,21.23
2023-02-17T04:21:47.833Z,18.63
2023-02-17T04:24:15.272Z,18.38
2023-02-17T04:26:44.338Z,20.13
2023-02-17T04:29:11.773Z,17.45
2023-02-17T04:31:39.296Z,17.48
2023-02-17T04:34:06.842Z,18.27
2023-02-17T04:36:34.343Z,18.20
2023-02-17T04:39:01.799Z,18.92
2023-02-17T04:41:29.281Z,18.50
2023-02-17T04:43:56.708Z,18.90
2023-02-17T04:46:24.187Z,18.05
2023-02-17T04:48:51.620Z,18.48
2023-02-17T04:51:19.078Z,17.95
2023-02-17T04:53:46.545Z,17.77
2023-02-17T04:56:13.997Z,19.33
2023-02-17T04:58:41.586Z,18.95
2023-02-17T05:01:09.161Z,18.15
2023-02-17T05:03:36.720Z,19.77
2023-02-17T05:06:04.428Z,18.52
2023-02-17T05:08:32.116Z,20.05
2023-02-17T05:10:59.580Z,21.60
2023-02-17T05:13:27.712Z,21.05
2023-02-17T05:15:55.265Z,22.35
2023-02-17T05:18:22.733Z,21.52
2023-02-17T05:20:50.169Z,22.42
2023-02-17T05:23:17.624Z,19.65
2023-02-17T05:25:45.127Z,20.58
2023-02-17T05:28:12.558Z,20.17
2023-02-17T05:30:40.048Z,21.60
2023-02-17T05:33:07.501Z,19.52
2023-02-17T05:35:38.082Z,20.10
2023-02-17T05:38:05.589Z,21.20
2023-02-17T05:40:35.221Z,20.25
2023-02-17T05:43:05.176Z,20.00
2023-02-17T05:45:32.644Z,19.73
2023-02-17T05:48:00.097Z,21.73
2023-02-17T05:50:27.558Z,22.10
2023-02-17T05:53:03.092Z,21.15
2023-02-17T05:55:30.555Z,22.05
2023-02-17T05:57:58.007Z,21.98
2023-02-17T06:00:25.679Z,23.48
2023-02-17T06:02:53.677Z,21.55
2023-02-17T06:05:21.202Z,23.75
2023-02-17T06:07:48.634Z,24.17
2023-02-17T06:10:16.091Z,24.90
2023-02-17T06:12:45.896Z,24.23
2023-02-17T06:15:13.530Z,23.63
2023-02-17T06:17:41.105Z,23.10
2023-02-17T06:20:08.970Z,23.63
2023-02-17T06:22:36.599Z,24.63
2023-02-17T06:25:04.162Z,22.58
2023-02-17T06:27:31.645Z,23.65
2023-02-17T06:29:59.096Z,24.30
2023-02-17T06:32:26.588Z,22.73
2023-02-17T06:34:54.074Z,23.85
2023-02-17T06:37:21.525Z,24.48
2023-02-17T06:39:48.986Z,24.23
2023-02-17T06:42:16.643Z,25.35
2023-02-17T06:44:44.079Z,24.00
2023-02-17T06:47:11.521Z,26.73
2023-02-17T06:49:40.736Z,25.30
2023-02-17T06:52:08.424Z,25.33
2023-02-17T06:54:36.002Z,25.20
2023-02-17T06:57:03.557Z,26.35
2023-02-17T06:59:33.345Z,24.65
2023-02-17T07:02:02.374Z,25.90
2023-02-17T07:04:30.363Z,25.67
2023-02-17T07:06:57.841Z,23.65
2023-02-17T07:09:25.356Z,22.98
2023-02-17T07:11:52.854Z,22.83
2023-02-17T07:14:20.327Z,24.52
2023-02-17T07:16:47.875Z,22.75
2023-02-17T07:19:15.434Z,23.05
2023-02-17T07:21:43.044Z,23.88
2023-02-17T07:24:10.721Z,22.45
2023-02-17T07:26:38.734Z,23.55
2023-02-17T07:29:07.184Z,22.73
2023-02-17T07:31:37.059Z,22.52
2023-02-17T07:34:05.318Z,23.08
2023-02-17T07:36:32.821Z,22.27
2023-02-17T07:39:00.316Z,21.38
2023-02-17T07:41:32.818Z,21.88
2023-02-17T07:44:08.652Z,20.45
2023-02-17T07:46:37.666Z,20.50
2023-02-17T07:49:05.925Z,21.02
2023-02-17T07:51:33.387Z,19.23
2023-02-17T07:54:01.715Z,20.13
2023-02-17T07:56:30.110Z,18.40
2023-02-17T07:58:57.563Z,17.23
2023-02-17T08:01:25.781Z,17.90
2023-02-17T08:03:53.799Z,18.15
2023-02-17T08:06:23.332Z,18.48
2023-02-17T08:09:09.941Z,18.10
2023-02-17T08:11:56.493Z,16.20
2023-02-17T08:14:25.375Z,18.25
2023-02-17T08:16:53.022Z,17.55
2023-02-17T08:19:20.665Z,18.00
2023-02-17T08:21:48.247Z,16.98
2023-02-17T08:24:22.208Z,17.73
2023-02-17T08:26:49.944Z,15.32
2023-02-17T08:29:18.896Z,16.88
2023-02-17T08:31:46.602Z,14.68
2023-02-17T08:34:14.414Z,14.00
2023-02-17T08:36:42.275Z,13.30
2023-02-17T08:39:14.486Z,13.20
2023-02-17T08:41:42.354Z,11.40
2023-02-17T08:44:11.618Z,11.25
2023-02-17T08:46:39.343Z,10.25
2023-02-17T08:49:07.272Z,10.38
2023-02-17T08:51:35.421Z,9.70
2023-02-17T08:54:03.528Z,10.00
2023-02-17T08:56:31.254Z,9.48
2023-02-17T08:58:58.913Z,9.55
2023-02-17T09:01:27.138Z,8.07
2023-02-17T09:03:56.345Z,8.13
2023-02-17T09:06:24.075Z,9.50
2023-02-17T09:08:51.815Z,8.25
2023-02-17T09:11:20.896Z,8.15
2023-02-17T09:13:48.461Z,7.55
2023-02-17T09:16:16.102Z,8.38
2023-02-17T09:18:43.618Z,7.50
2023-02-17T09:21:12.683Z,7.95
2023-02-17T09:23:40.598Z,8.60
2023-02-17T09:26:10.119Z,7.00
2023-02-17T09:28:38.123Z,7.20
2023-02-17T09:31:16.219Z,7.25
2023-02-17T09:33:44.173Z,7.80
2023-02-17T09:36:13.060Z,9.20
2023-02-17T09:38:41.919Z,7.78
2023-02-17T09:41:18.975Z,7.47
2023-02-17T09:43:46.973Z,8.93
2023-02-17T09:46:20.246Z,7.75
2023-02-17T09:48:49.008Z,8.48
2023-02-17T09:51:35.522Z,7.60
2023-02-17T09:54:16.440Z,7.50
2023-02-17T09:56:46.590Z,7.03
2023-02-17T09:59:21.088Z,8.20
2023-02-17T10:01:49.815Z,8.43
2023-02-17T10:04:22.809Z,8.98
2023-02-17T10:06:52.730Z,9.32
2023-02-17T10:09:27.616Z,9.07
2023-02-17T10:12:03.109Z,8.70
2023-02-17T10:14:46.089Z,7.72
2023-02-17T10:17:32.338Z,7.22
2023-02-17T10:20:18.652Z,7.10
2023-02-17T10:22:48.214Z,8.13
2023-02-17T10:25:34.663Z,7.32
2023-02-17T10:28:06.418Z,7.35
2023-02-17T10:30:39.186Z,6.78
2023-02-17T10:33:15.328Z,6.63
2023-02-17T10:35:53.381Z,7.05
2023-02-17T10:38:36.314Z,6.10
2023-02-17T10:41:06.020Z,5.57
2023-02-17T10:43:34.351Z,5.93
2023-02-17T10:46:03.591Z,7.35
2023-02-17T10:48:39.704Z,6.22
2023-02-17T10:51:07.639Z,5.78
2023-02-17T10:53:37.333Z,6.88
2023-02-17T10:56:10.924Z,8.40
2023-02-17T10:58:41.385Z,6.85
2023-02-17T11:01:09.027Z,5.80
2023-02-17T11:03:38.209Z,5.82
2023-02-17T11:06:07.453Z,6.65
2023-02-17T11:08:38.107Z,5.68
2023-02-17T11:11:15.749Z,7.15
2023-02-17T11:13:52.321Z,5.07
2023-02-17T11:16:26.582Z,5.00
2023-02-17T11:18:54.553Z,5.00
2023-02-17T11:21:22.377Z,5.53
2023-02-17T11:23:52.763Z,5.63
2023-02-17T11:26:25.404Z,6.15
2023-02-17T11:28:52.904Z,4.22
2023-02-17T11:31:24.696Z,5.95
2023-02-17T11:33:52.272Z,4.93
2023-02-17T11:36:27.384Z,5.38
2023-02-17T11:38:54.944Z,4.65
2023-02-17T11:41:22.852Z,5.78
2023-02-17T11:43:58.655Z,5.00
2023-02-17T11:46:44.883Z,5.22
2023-02-17T11:49:38.535Z,4.80
2023-02-17T11:52:15.475Z,5.20
2023-02-17T11:55:01.976Z,4.63
2023-02-17T11:57:40.750Z,5.45
2023-02-17T12:00:14.499Z,4.20
2023-02-17T12:03:00.696Z,4.32
2023-02-17T12:05:36.807Z,4.38
2023-02-17T12:08:07.284Z,4.15
2023-02-17T12:10:53.821Z,3.22
2023-02-17T12:13:21.325Z,3.75
2023-02-17T12:16:04.020Z,3.55
2023-02-17T12:18:40.667Z,3.67
2023-02-17T12:21:12.433Z,4.55
2023-02-17T12:23:39.882Z,3.50
2023-02-17T12:26:25.662Z,3.83
2023-02-17T12:28:56.238Z,3.40
2023-02-17T12:31:41.722Z,3.22
2023-02-17T12:34:28.127Z,3.63
2023-02-17T12:36:57.128Z,3.88
2023-02-17T12:39:44.929Z,3.97
2023-02-17T12:42:17.244Z,4.55
2023-02-17T12:44:46.978Z,4.45
2023-02-17T12:47:37.662Z,2.97
2023-02-17T12:50:08.160Z,4.22
2023-02-17T12:52:39.637Z,4.60
2023-02-17T12:55:13.306Z,4.93
2023-02-17T12:57:43.789Z,4.95
2023-02-17T13:00:20.439Z,5.65
2023-02-17T13:02:48.303Z,3.30
2023-02-17T13:05:39.178Z,3.45
2023-02-17T13:08:19.535Z,3.95
2023-02-17T13:10:47.010Z,4.25
2023-02-17T13:13:26.303Z,5.05
2023-02-17T13:16:12.492Z,4.75
2023-02-17T13:18:41.186Z,3.90
2023-02-17T13:21:25.089Z,3.08
2023-02-17T13:24:02.400Z,5.75
2023-02-17T13:26:29.906Z,4.45
2023-02-17T13:29:16.275Z,3.92
2023-02-17T13:31:46.906Z,4.40
2023-02-17T13:34:24.546Z,6.63
2023-02-17T13:36:52.050Z,4.90
2023-02-17T13:39:28.735Z,4.10
2023-02-17T13:41:57.900Z,4.55
2023-02-17T13:44:27.973Z,4.40
2023-02-17T13:47:00.538Z,4.00
2023-02-17T13:49:28.999Z,3.80
2023-02-17T13:52:09.855Z,4.13
2023-02-17T13:54:37.360Z,5.65
2023-02-17T13:57:04.851Z,4.80
2023-02-17T13:59:32.329Z,5.53
2023-02-17T14:02:00.096Z,5.13
2023-02-17T14:04:30.436Z,4.82
2023-02-17T14:06:59.472Z,4.13
2023-02-17T14:09:28.879Z,3.40
2023-02-17T14:11:56.840Z,4.72
2023-02-17T14:14:25.613Z,4.03
2023-02-17T14:17:16.419Z,4.07
2023-02-17T14:19:48.548Z,4.63
2023-02-17T14:22:29.883Z,4.28
2023-02-17T14:25:00.509Z,4.78
2023-02-17T14:27:28.060Z,5.63
2023-02-17T14:29:55.534Z,4.07
2023-02-17T14:32:29.141Z,5.25
2023-02-17T14:35:06.601Z,4.40
2023-02-17T14:37:36.839Z,4.32
2023-02-17T14:40:15.078Z,5.03
2023-02-17T14:42:42.504Z,5.72
2023-02-17T14:45:10.112Z,5.63
2023-02-17T14:47:37.565Z,6.30
2023-02-17T14:50:05.137Z,5.00
2023-02-17T14:52:32.616Z,5.97
2023-02-17T14:55:00.653Z,5.95
2023-02-17T14:57:28.601Z,5.28
2023-02-17T14:59:59.302Z,6.20
2023-02-17T15:02:30.258Z,5.30
2023-02-17T15:04:57.796Z,6.97
2023-02-17T15:07:25.376Z,5.00
2023-02-17T15:09:52.923Z,4.70
2023-02-17T15:12:21.616Z,5.05
2023-02-17T15:14:49.448Z,5.10
2023-02-17T15:17:17.277Z,4.60
2023-02-17T15:19:44.959Z,5.20
2023-02-17T15:22:13.398Z,5.30
2023-02-17T15:24:41.483Z,5.13
2023-02-17T15:27:13.326Z,6.90
2023-02-17T15:29:40.967Z,4.25
2023-02-17T15:32:13.882Z,6.45
2023-02-17T15:34:41.499Z,5.85
2023-02-17T15:37:10.092Z,6.55
2023-02-17T15:39:39.842Z,5.03
2023-02-17T15:42:13.566Z,4.90
2023-02-17T15:44:48.793Z,5.53
2023-02-17T15:47:17.797Z,5.78
2023-02-17T15:49:45.874Z,4.00
2023-02-17T15:52:14.721Z,5.28
2023-02-17T15:54:42.792Z,4.03
2023-02-17T15:57:19.420Z,4.50
2023-02-17T15:59:47.210Z,5.10
2023-02-17T16:02:25.142Z,4.38
2023-02-17T16:04:52.744Z,3.55
2023-02-17T16:07:21.633Z,4.35
2023-02-17T16:09:52.020Z,3.38
2023-02-17T16:12:26.763Z,4.47
2023-02-17T16:14:54.742Z,4.30
2023-02-17T16:17:22.271Z,4.40
2023-02-17T16:19:49.784Z,4.72
2023-02-17T16:22:17.259Z,6.13
2023-02-17T16:24:44.813Z,5.43
2023-02-17T16:27:14.075Z,5.30
2023-02-17T16:29:41.895Z,5.43
2023-02-17T16:32:12.129Z,5.05
2023-02-17T16:34:40.332Z,5.07
2023-02-17T16:37:13.945Z,3.85
2023-02-17T16:39:41.662Z,4.65
2023-02-17T16:42:11.752Z,5.28
2023-02-17T16:44:39.284Z,4.53
2023-02-17T16:47:07.373Z,4.13
2023-02-17T16:49:37.025Z,4.30
2023-02-17T16:52:07.694Z,5.93
2023-02-17T16:54:35.813Z,5.05
2023-02-17T16:57:03.687Z,6.53
2023-02-17T16:59:31.237Z,4.18
2023-02-17T17:01:58.872Z,4.10
2023-02-17T17:04:26.463Z,6.18
2023-02-17T17:06:53.994Z,4.32
2023-02-17T17:09:22.977Z,6.40
2023-02-17T17:11:50.887Z,4.25
2023-02-17T17:14:20.073Z,4.43
2023-02-17T17:16:52.368Z,3.97
2023-02-17T17:19:19.901Z,4.95
2023-02-17T17:21:48.094Z,4.25
2023-02-17T17:24:15.810Z,3.60
2023-02-17T17:26:45.149Z,3.05
2023-02-17T17:29:13.965Z,3.20
2023-02-17T17:31:41.928Z,3.25
2023-02-17T17:34:09.533Z,3.17
2023-02-17T17:36:39.272Z,2.67
2023-02-17T17:39:07.962Z,3.47
2023-02-17T17:41:35.570Z,5.00
2023-02-17T17:44:03.239Z,3.25
2023-02-17T17:46:32.216Z,3.85
2023-02-17T17:49:00.653Z,3.92
2023-02-17T17:51:29.713Z,3.10
2023-02-17T17:53:57.468Z,4.13
2023-02-17T17:56:27.214Z,4.05
2023-02-17T17:58:55.041Z,3.67
2023-02-17T18:01:22.712Z,4.18
2023-02-17T18:03:50.209Z,3.25
2023-02-17T18:06:22.237Z,4.32
2023-02-17T18:08:49.980Z,6.10
2023-02-17T18:11:18.170Z,4.38
2023-02-17T18:13:47.040Z,5.43
2023-02-17T18:16:14.836Z,3.45
2023-02-17T18:18:42.502Z,3.95
2023-02-17T18:21:10.017Z,4.63
2023-02-17T18:23:38.001Z,5.22
2023-02-17T18:26:06.762Z,4.38
2023-02-17T18:28:34.973Z,4.13
2023-02-17T18:31:09.885Z,4.05
2023-02-17T18:33:37.899Z,4.72
2023-02-17T18:36:12.957Z,3.78
2023-02-17T18:38:40.463Z,4.60
2023-02-17T18:41:08.107Z,3.45
2023-02-17T18:43:35.941Z,4.38
2023-02-17T18:46:03.738Z,3.70
2023-02-17T18:48:31.710Z,4.13
2023-02-17T18:50:59.211Z,4.72
2023-02-17T18:53:27.396Z,4.03
2023-02-17T18:55:54.889Z,4.75
2023-02-17T18:58:22.430Z,4.03
2023-02-17T19:00:49.888Z,4.65
2023-02-17T19:03:17.346Z,3.38
2023-02-17T19:05:44.864Z,5.07
2023-02-17T19:08:12.331Z,3.25
2023-02-17T19:10:39.905Z,4.55
2023-02-17T19:13:07.437Z,4.38
2023-02-17T19:15:35.031Z,4.82
2023-02-17T19:18:02.638Z,4.65
2023-02-17T19:20:30.332Z,3.30
2023-02-17T19:22:58.231Z,3.60
2023-02-17T19:25:26.098Z,3.63
2023-02-17T19:27:53.593Z,4.20
2023-02-17T19:30:21.416Z,4.07
2023-02-17T19:32:48.980Z,3.22
2023-02-17T19:35:16.542Z,3.70
2023-02-17T19:37:44.035Z,4.07
2023-02-17T19:40:11.621Z,3.53
2023-02-17T19:42:40.233Z,3.55
2023-02-17T19:45:07.848Z,3.85
2023-02-17T19:47:35.290Z,3.05
2023-02-17T19:50:02.769Z,3.92
2023-02-17T19:52:30.294Z,3.97
2023-02-17T19:54:57.872Z,4.25
2023-02-17T19:57:25.289Z,4.60
2023-02-17T19:59:52.828Z,4.10
2023-02-17T20:02:20.412Z,5.20
2023-02-17T20:04:48.190Z,4.43
2023-02-17T20:07:15.678Z,4.65
2023-02-17T20:09:44.936Z,4.60
2023-02-17T20:12:12.428Z,3.88
2023-02-17T20:14:39.962Z,3.25
2023-02-17T20:17:07.501Z,3.47
2023-02-17T20:19:38.793Z,3.75
2023-02-17T20:22:07.144Z,3.10
2023-02-17T20:24:36.705Z,4.43
2023-02-17T20:27:08.161Z,5.13
2023-02-17T20:29:36.421Z,5.65
2023-02-17T20:32:04.504Z,3.95
2023-02-17T20:34:37.446Z,5.03
2023-02-17T20:37:06.438Z,2.40
2023-02-17T20:39:35.476Z,4.40
2023-02-17T20:42:03.137Z,3.90
2023-02-17T20:44:30.702Z,3.88
2023-02-17T20:46:58.299Z,4.32
2023-02-17T20:49:26.202Z,4.78
2023-02-17T20:51:53.800Z,3.50
2023-02-17T20:54:25.416Z,4.18
2023-02-17T20:56:53.155Z,5.03
2023-02-17T20:59:20.804Z,3.10
2023-02-17T21:01:48.427Z,3.90
2023-02-17T21:04:15.942Z,3.67
2023-02-17T21:06:45.651Z,4.53
2023-02-17T21:09:15.587Z,4.15
2023-02-17T21:11:43.298Z,3.75
2023-02-17T21:14:10.832Z,4.07
2023-02-17T21:16:38.834Z,4.30
2023-02-17T21:19:06.578Z,3.60
2023-02-17T21:21:34.145Z,3.85
2023-02-17T21:24:03.551Z,3.15
2023-02-17T21:26:31.198Z,3.83
2023-02-17T21:28:58.752Z,4.20
2023-02-17T21:31:27.847Z,4.15
2023-02-17T21:33:55.620Z,4.15
2023-02-17T21:36:23.120Z,4.90
2023-02-17T21:38:50.738Z,3.78
2023-02-17T21:41:22.409Z,3.97
2023-02-17T21:44:09.368Z,3.65
2023-02-17T21:46:37.518Z,4.00
2023-02-17T21:49:05.112Z,4.75
2023-02-17T21:51:32.824Z,4.95
2023-02-17T21:54:00.329Z,4.22
2023-02-17T21:56:27.946Z,4.38
2023-02-17T21:58:55.798Z,4.57
2023-02-17T22:01:24.516Z,5.75
2023-02-17T22:03:52.478Z,3.72
2023-02-17T22:06:22.274Z,3.83
2023-02-17T22:08:49.943Z,4.47
2023-02-17T22:11:18.398Z,3.83
2023-02-17T22:13:46.271Z,5.47
2023-02-17T22:16:13.839Z,4.03
2023-02-17T22:18:41.699Z,4.38
2023-02-17T22:21:10.486Z,4.03
2023-02-17T22:23:38.338Z,4.85
2023-02-17T22:26:16.797Z,5.10
2023-02-17T22:28:44.410Z,3.85
2023-02-17T22:31:19.302Z,3.72
2023-02-17T22:33:46.827Z,4.03
2023-02-17T22:36:16.088Z,3.50
2023-02-17T22:38:43.668Z,4.05
2023-02-17T22:41:12.353Z,3.97
2023-02-17T22:43:41.748Z,3.38
2023-02-17T22:46:10.827Z,3.83
2023-02-17T22:48:40.968Z,3.67
2023-02-17T22:51:09.456Z,3.42
2023-02-17T22:53:37.519Z,3.65
2023-02-17T22:56:05.489Z,4.25
2023-02-17T22:58:33.595Z,3.83
2023-02-17T23:01:04.109Z,4.85
2023-02-17T23:03:31.936Z,3.88
2023-02-17T23:06:00.246Z,3.33
2023-02-17T23:08:27.760Z,4.05
2023-02-17T23:10:59.370Z,3.92
2023-02-17T23:13:26.877Z,3.70
2023-02-17T23:15:54.380Z,4.00
2023-02-17T23:18:21.877Z,3.50
2023-02-17T23:20:55.010Z,2.70
2023-02-17T23:23:22.663Z,3.33
2023-02-17T23:25:52.088Z,3.70
2023-02-17T23:28:20.621Z,3.45
2023-02-17T23:30:48.628Z,3.28
2023-02-17T23:33:16.678Z,3.88
2023-02-17T23:35:45.125Z,2.90
2023-02-17T23:38:13.676Z,3.70
2023-02-17T23:40:41.551Z,3.70
2023-02-17T23:43:09.635Z,4.13
2023-02-17T23:45:39.081Z,3.33
2023-02-17T23:48:06.951Z,3.28
2023-02-17T23:50:34.464Z,4.65
2023-02-17T23:53:01.957Z,3.65
2023-02-17T23:55:31.962Z,4.20
2023-02-17T23:58:00.687Z,4.22
